sensor_id;sensor_type;location;lat;lon;timestamp;temperature;humidity
44461;DHT22;30162;53.642;10.640;2023-04-01T00:01:04;14.20;97.70
44461;DHT22;30162;53.642;10.640;2023-04-01T00:03:30;14.20;97.40
44461;DHT22;30162;53.642;10.640;2023-04-01T00:05:57;14.20;97.40
44461;DHT22;30162;53.642;10.640;2023-04-01T00:08:23;14.10;97.50
44461;DHT22;30162;53.642;10.640;2023-04-01T00:10:49;14.20;97.60
44461;DHT22;30162;53.642;10.640;2023-04-01T00:13:14;14.20;97.50
44461;DHT22;30162;53.642;10.640;2023-04-01T00:15:41;14.30;97.20
44461;DHT22;30162;53.642;10.640;2023-04-01T00:18:07;14.20;97.30
44461;DHT22;30162;53.642;10.640;2023-04-01T00:20:32;14.10;97.30
44461;DHT22;30162;53.642;10.640;2023-04-01T00:22:58;14.10;97.60
44461;DHT22;30162;53.642;10.640;2023-04-01T00:25:23;14.00;97.70
44461;DHT22;30162;53.642;10.640;2023-04-01T00:27:49;14.00;97.60
44461;DHT22;30162;53.642;10.640;2023-04-01T00:30:16;14.10;97.60
44461;DHT22;30162;53.642;10.640;2023-04-01T00:32:41;14.10;97.30
44461;DHT22;30162;53.642;10.640;2023-04-01T00:35:07;14.20;97.60
44461;DHT22;30162;53.642;10.640;2023-04-01T00:37:35;14.10;97.30
44461;DHT22;30162;53.642;10.640;2023-04-01T00:40:03;14.00;97.40
44461;DHT22;30162;53.642;10.640;2023-04-01T00:42:29;14.20;97.60
44461;DHT22;30162;53.642;10.640;2023-04-01T00:44:55;14.20;97.50
44461;DHT22;30162;53.642;10.640;2023-04-01T00:47:22;13.90;97.40
44461;DHT22;30162;53.642;10.640;2023-04-01T00:49:50;14.00;97.70
44461;DHT22;30162;53.642;10.640;2023-04-01T00:52:19;14.10;97.50
44461;DHT22;30162;53.642;10.640;2023-04-01T00:54:47;14.00;97.40
44461;DHT22;30162;53.642;10.640;2023-04-01T00:57:16;14.00;97.60
44461;DHT22;30162;53.642;10.640;2023-04-01T00:59:44;13.90;97.80
44461;DHT22;30162;53.642;10.640;2023-04-01T01:02:12;14.00;97.80
44461;DHT22;30162;53.642;10.640;2023-04-01T01:04:38;14.10;97.70
44461;DHT22;30162;53.642;10.640;2023-04-01T01:07:35;14.00;97.60
44461;DHT22;30162;53.642;10.640;2023-04-01T01:15:30;14.10;97.60
44461;DHT22;30162;53.642;10.640;2023-04-01T01:18:19;14.20;97.50
44461;DHT22;30162;53.642;10.640;2023-04-01T01:23:58;14.10;97.20
44461;DHT22;30162;53.642;10.640;2023-04-01T01:26:37;14.10;97.60
44461;DHT22;30162;53.642;10.640;2023-04-01T01:37:43;14.00;97.60
44461;DHT22;30162;53.642;10.640;2023-04-01T01:40:10;14.10;97.30
44461;DHT22;30162;53.642;10.640;2023-04-01T01:42:43;14.10;97.50
44461;DHT22;30162;53.642;10.640;2023-04-01T01:45:11;14.10;97.50
44461;DHT22;30162;53.642;10.640;2023-04-01T01:47:40;14.20;97.30
44461;DHT22;30162;53.642;10.640;2023-04-01T01:50:07;14.30;97.30
44461;DHT22;30162;53.642;10.640;2023-04-01T01:52:33;14.10;97.20
44461;DHT22;30162;53.642;10.640;2023-04-01T01:54:59;14.10;97.50
44461;DHT22;30162;53.642;10.640;2023-04-01T01:57:36;14.00;97.50
44461;DHT22;30162;53.642;10.640;2023-04-01T02:00:09;13.90;97.50
44461;DHT22;30162;53.642;10.640;2023-04-01T02:02:46;14.00;97.70
44461;DHT22;30162;53.642;10.640;2023-04-01T02:05:19;14.00;97.50
44461;DHT22;30162;53.642;10.640;2023-04-01T02:07:52;14.00;97.70
44461;DHT22;30162;53.642;10.640;2023-04-01T02:10:22;14.00;97.70
44461;DHT22;30162;53.642;10.640;2023-04-01T02:12:51;14.00;97.70
44461;DHT22;30162;53.642;10.640;2023-04-01T02:15:19;14.10;97.50
44461;DHT22;30162;53.642;10.640;2023-04-01T02:17:47;14.00;97.60
44461;DHT22;30162;53.642;10.640;2023-04-01T02:20:17;14.00;97.50
44461;DHT22;30162;53.642;10.640;2023-04-01T02:22:54;14.00;97.60
44461;DHT22;30162;53.642;10.640;2023-04-01T02:25:26;14.00;97.40
44461;DHT22;30162;53.642;10.640;2023-04-01T02:27:53;13.90;97.40
44461;DHT22;30162;53.642;10.640;2023-04-01T02:30:21;13.90;97.80
44461;DHT22;30162;53.642;10.640;2023-04-01T02:32:47;13.90;97.70
44461;DHT22;30162;53.642;10.640;2023-04-01T02:35:15;14.00;97.70
44461;DHT22;30162;53.642;10.640;2023-04-01T02:37:42;14.00;97.50
44461;DHT22;30162;53.642;10.640;2023-04-01T02:40:11;14.10;97.50
44461;DHT22;30162;53.642;10.640;2023-04-01T02:42:37;14.10;97.30
44461;DHT22;30162;53.642;10.640;2023-04-01T02:45:04;14.10;97.30
44461;DHT22;30162;53.642;10.640;2023-04-01T02:47:30;14.10;97.30
44461;DHT22;30162;53.642;10.640;2023-04-01T02:49:56;14.00;97.40
44461;DHT22;30162;53.642;10.640;2023-04-01T02:52:24;14.00;97.20
44461;DHT22;30162;53.642;10.640;2023-04-01T02:54:50;14.00;97.40
44461;DHT22;30162;53.642;10.640;2023-04-01T02:57:16;14.00;97.50
44461;DHT22;30162;53.642;10.640;2023-04-01T02:59:41;14.00;97.50
44461;DHT22;30162;53.642;10.640;2023-04-01T03:02:07;13.90;97.30
44461;DHT22;30162;53.642;10.640;2023-04-01T03:04:33;14.00;97.50
44461;DHT22;30162;53.642;10.640;2023-04-01T03:06:58;14.20;97.40
44461;DHT22;30162;53.642;10.640;2023-04-01T03:09:24;14.10;97.10
44461;DHT22;30162;53.642;10.640;2023-04-01T03:11:49;14.00;97.00
44461;DHT22;30162;53.642;10.640;2023-04-01T03:14:15;14.00;97.40
44461;DHT22;30162;53.642;10.640;2023-04-01T03:16:41;14.00;97.20
44461;DHT22;30162;53.642;10.640;2023-04-01T03:19:06;13.90;97.40
44461;DHT22;30162;53.642;10.640;2023-04-01T03:21:32;14.00;97.40
44461;DHT22;30162;53.642;10.640;2023-04-01T03:23:57;14.00;97.30
44461;DHT22;30162;53.642;10.640;2023-04-01T03:26:24;14.00;97.30
44461;DHT22;30162;53.642;10.640;2023-04-01T03:28:49;13.90;97.10
44461;DHT22;30162;53.642;10.640;2023-04-01T03:31:15;14.00;97.30
44461;DHT22;30162;53.642;10.640;2023-04-01T03:33:41;14.00;97.30
44461;DHT22;30162;53.642;10.640;2023-04-01T03:36:07;14.10;97.30
44461;DHT22;30162;53.642;10.640;2023-04-01T03:38:36;14.20;97.10
44461;DHT22;30162;53.642;10.640;2023-04-01T03:41:02;14.20;97.00
44461;DHT22;30162;53.642;10.640;2023-04-01T03:43:27;14.00;97.10
44461;DHT22;30162;53.642;10.640;2023-04-01T03:45:53;14.10;97.20
44461;DHT22;30162;53.642;10.640;2023-04-01T03:48:20;14.10;97.10
44461;DHT22;30162;53.642;10.640;2023-04-01T03:50:46;14.00;96.90
44461;DHT22;30162;53.642;10.640;2023-04-01T03:53:12;13.80;96.50
44461;DHT22;30162;53.642;10.640;2023-04-01T03:55:39;13.60;96.20
44461;DHT22;30162;53.642;10.640;2023-04-01T03:58:05;13.50;96.10
44461;DHT22;30162;53.642;10.640;2023-04-01T04:00:32;13.50;96.10
44461;DHT22;30162;53.642;10.640;2023-04-01T04:02:58;13.50;95.90
44461;DHT22;30162;53.642;10.640;2023-04-01T04:05:25;13.30;95.90
44461;DHT22;30162;53.642;10.640;2023-04-01T04:07:51;13.00;96.40
44461;DHT22;30162;53.642;10.640;2023-04-01T04:10:17;13.10;96.30
44461;DHT22;30162;53.642;10.640;2023-04-01T04:12:42;13.10;96.10
44461;DHT22;30162;53.642;10.640;2023-04-01T04:15:08;12.90;96.10
44461;DHT22;30162;53.642;10.640;2023-04-01T04:17:34;12.70;96.40
44461;DHT22;30162;53.642;10.640;2023-04-01T04:20:00;12.70;96.30
44461;DHT22;30162;53.642;10.640;2023-04-01T04:22:26;12.30;96.30
44461;DHT22;30162;53.642;10.640;2023-04-01T04:24:52;12.50;96.30
44461;DHT22;30162;53.642;10.640;2023-04-01T04:27:17;12.50;96.40
44461;DHT22;30162;53.642;10.640;2023-04-01T04:29:43;12.50;96.40
44461;DHT22;30162;53.642;10.640;2023-04-01T04:32:08;12.50;96.30
44461;DHT22;30162;53.642;10.640;2023-04-01T04:34:34;12.50;96.20
44461;DHT22;30162;53.642;10.640;2023-04-01T04:37:00;12.00;96.20
44461;DHT22;30162;53.642;10.640;2023-04-01T04:39:25;12.00;96.50
44461;DHT22;30162;53.642;10.640;2023-04-01T04:41:51;11.80;96.70
44461;DHT22;30162;53.642;10.640;2023-04-01T04:44:16;11.80;96.50
44461;DHT22;30162;53.642;10.640;2023-04-01T04:46:42;11.90;96.30
44461;DHT22;30162;53.642;10.640;2023-04-01T04:49:08;12.00;96.40
44461;DHT22;30162;53.642;10.640;2023-04-01T04:51:33;12.00;95.90
44461;DHT22;30162;53.642;10.640;2023-04-01T04:54:04;12.10;95.80
44461;DHT22;30162;53.642;10.640;2023-04-01T04:56:30;11.90;96.00
44461;DHT22;30162;53.642;10.640;2023-04-01T04:58:56;11.80;95.90
44461;DHT22;30162;53.642;10.640;2023-04-01T05:01:22;11.80;96.00
44461;DHT22;30162;53.642;10.640;2023-04-01T05:03:47;11.50;96.10
44461;DHT22;30162;53.642;10.640;2023-04-01T05:06:14;11.50;96.00
44461;DHT22;30162;53.642;10.640;2023-04-01T05:08:41;11.10;96.30
44461;DHT22;30162;53.642;10.640;2023-04-01T05:11:14;11.10;96.50
44461;DHT22;30162;53.642;10.640;2023-04-01T05:13:40;11.00;96.20
44461;DHT22;30162;53.642;10.640;2023-04-01T05:16:15;10.70;96.40
44461;DHT22;30162;53.642;10.640;2023-04-01T05:18:41;10.60;96.70
44461;DHT22;30162;53.642;10.640;2023-04-01T05:21:08;10.50;97.10
44461;DHT22;30162;53.642;10.640;2023-04-01T05:23:35;10.40;97.00
44461;DHT22;30162;53.642;10.640;2023-04-01T05:26:09;10.60;97.10
44461;DHT22;30162;53.642;10.640;2023-04-01T05:28:34;10.30;96.90
44461;DHT22;30162;53.642;10.640;2023-04-01T05:31:01;10.70;96.80
44461;DHT22;30162;53.642;10.640;2023-04-01T05:33:28;10.70;96.60
44461;DHT22;30162;53.642;10.640;2023-04-01T05:35:54;10.80;96.60
44461;DHT22;30162;53.642;10.640;2023-04-01T05:38:20;10.70;96.60
44461;DHT22;30162;53.642;10.640;2023-04-01T05:40:45;10.80;96.50
44461;DHT22;30162;53.642;10.640;2023-04-01T05:43:11;11.00;96.50
44461;DHT22;30162;53.642;10.640;2023-04-01T05:45:36;10.70;96.30
44461;DHT22;30162;53.642;10.640;2023-04-01T05:48:03;10.80;96.30
44461;DHT22;30162;53.642;10.640;2023-04-01T05:50:29;10.70;96.40
44461;DHT22;30162;53.642;10.640;2023-04-01T05:52:54;10.50;95.90
44461;DHT22;30162;53.642;10.640;2023-04-01T05:55:20;10.60;96.40
44461;DHT22;30162;53.642;10.640;2023-04-01T05:57:46;10.40;96.50
44461;DHT22;30162;53.642;10.640;2023-04-01T06:00:14;10.70;96.70
44461;DHT22;30162;53.642;10.640;2023-04-01T06:02:40;10.70;96.10
44461;DHT22;30162;53.642;10.640;2023-04-01T06:05:21;10.80;96.40
44461;DHT22;30162;53.642;10.640;2023-04-01T06:07:47;10.70;95.90
44461;DHT22;30162;53.642;10.640;2023-04-01T06:10:16;10.70;96.10
44461;DHT22;30162;53.642;10.640;2023-04-01T06:18:35;10.30;96.50
44461;DHT22;30162;53.642;10.640;2023-04-01T06:26:47;10.60;96.00
44461;DHT22;30162;53.642;10.640;2023-04-01T06:29:25;10.60;96.30
44461;DHT22;30162;53.642;10.640;2023-04-01T06:32:16;10.50;96.20
44461;DHT22;30162;53.642;10.640;2023-04-01T06:35:16;10.60;95.70
44461;DHT22;30162;53.642;10.640;2023-04-01T06:38:18;10.50;95.80
44461;DHT22;30162;53.642;10.640;2023-04-01T06:46:22;10.00;96.40
44461;DHT22;30162;53.642;10.640;2023-04-01T06:51:56;9.90;96.50
44461;DHT22;30162;53.642;10.640;2023-04-01T06:54:44;10.10;96.80
44461;DHT22;30162;53.642;10.640;2023-04-01T06:57:33;10.40;96.50
44461;DHT22;30162;53.642;10.640;2023-04-01T07:00:01;10.60;96.30
44461;DHT22;30162;53.642;10.640;2023-04-01T07:04:58;10.30;96.00
44461;DHT22;30162;53.642;10.640;2023-04-01T07:07:41;10.20;95.80
44461;DHT22;30162;53.642;10.640;2023-04-01T07:10:22;10.00;96.30
44461;DHT22;30162;53.642;10.640;2023-04-01T07:12:53;10.10;96.30
44461;DHT22;30162;53.642;10.640;2023-04-01T07:15:26;10.10;96.20
44461;DHT22;30162;53.642;10.640;2023-04-01T07:17:59;9.90;96.50
44461;DHT22;30162;53.642;10.640;2023-04-01T07:20:30;9.90;96.50
44461;DHT22;30162;53.642;10.640;2023-04-01T07:22:59;9.90;96.60
44461;DHT22;30162;53.642;10.640;2023-04-01T07:25:39;10.00;96.70
44461;DHT22;30162;53.642;10.640;2023-04-01T07:28:15;10.10;96.40
44461;DHT22;30162;53.642;10.640;2023-04-01T07:36:13;9.80;96.30
44461;DHT22;30162;53.642;10.640;2023-04-01T07:39:15;9.80;96.40
44461;DHT22;30162;53.642;10.640;2023-04-01T07:42:16;9.90;96.30
44461;DHT22;30162;53.642;10.640;2023-04-01T07:47:40;9.50;96.90
44461;DHT22;30162;53.642;10.640;2023-04-01T07:50:29;9.60;96.80
44461;DHT22;30162;53.642;10.640;2023-04-01T07:53:03;9.60;96.40
44461;DHT22;30162;53.642;10.640;2023-04-01T07:55:36;9.80;96.30
44461;DHT22;30162;53.642;10.640;2023-04-01T07:58:08;9.50;96.80
44461;DHT22;30162;53.642;10.640;2023-04-01T08:00:44;9.30;97.00
44461;DHT22;30162;53.642;10.640;2023-04-01T08:06:09;9.40;97.00
44461;DHT22;30162;53.642;10.640;2023-04-01T08:11:12;9.60;96.10
44461;DHT22;30162;53.642;10.640;2023-04-01T08:13:53;9.70;97.40
44461;DHT22;30162;53.642;10.640;2023-04-01T08:16:52;9.60;97.10
44461;DHT22;30162;53.642;10.640;2023-04-01T08:22:14;9.40;96.60
44461;DHT22;30162;53.642;10.640;2023-04-01T08:24:45;9.30;97.20
44461;DHT22;30162;53.642;10.640;2023-04-01T08:29:44;9.60;96.80
44461;DHT22;30162;53.642;10.640;2023-04-01T08:32:20;9.80;96.40
44461;DHT22;30162;53.642;10.640;2023-04-01T08:37:35;9.80;96.30
44461;DHT22;30162;53.642;10.640;2023-04-01T08:43:06;9.30;96.90
44461;DHT22;30162;53.642;10.640;2023-04-01T08:46:02;9.40;96.90
44461;DHT22;30162;53.642;10.640;2023-04-01T08:57:04;9.70;96.70
44461;DHT22;30162;53.642;10.640;2023-04-01T09:19:57;9.80;96.00
44461;DHT22;30162;53.642;10.640;2023-04-01T09:22:28;10.00;96.00
44461;DHT22;30162;53.642;10.640;2023-04-01T09:25:15;9.90;95.90
44461;DHT22;30162;53.642;10.640;2023-04-01T09:28:18;10.00;96.10
44461;DHT22;30162;53.642;10.640;2023-04-01T09:34:15;10.20;95.90
44461;DHT22;30162;53.642;10.640;2023-04-01T09:39:36;10.40;95.90
44461;DHT22;30162;53.642;10.640;2023-04-01T09:51:10;10.60;95.70
44461;DHT22;30162;53.642;10.640;2023-04-01T10:08:11;10.50;95.10
44461;DHT22;30162;53.642;10.640;2023-04-01T10:11:03;10.50;95.50
44461;DHT22;30162;53.642;10.640;2023-04-01T10:13:48;10.30;95.70
44461;DHT22;30162;53.642;10.640;2023-04-01T10:16:44;10.50;95.60
44461;DHT22;30162;53.642;10.640;2023-04-01T10:19:44;10.60;95.50
44461;DHT22;30162;53.642;10.640;2023-04-01T10:31:02;10.20;95.70
44461;DHT22;30162;53.642;10.640;2023-04-01T10:49:15;10.80;95.30
44461;DHT22;30162;53.642;10.640;2023-04-01T11:09:04;10.20;95.50
44461;DHT22;30162;53.642;10.640;2023-04-01T11:11:57;10.40;95.50
44461;DHT22;30162;53.642;10.640;2023-04-01T11:26:38;10.40;95.10
44461;DHT22;30162;53.642;10.640;2023-04-01T11:29:36;10.20;95.20
44461;DHT22;30162;53.642;10.640;2023-04-01T11:32:38;9.80;95.60
44461;DHT22;30162;53.642;10.640;2023-04-01T11:43:31;10.60;95.20
44461;DHT22;30162;53.642;10.640;2023-04-01T11:46:11;10.40;94.70
44461;DHT22;30162;53.642;10.640;2023-04-01T11:48:58;10.40;95.20
44461;DHT22;30162;53.642;10.640;2023-04-01T11:57:35;9.90;95.40
44461;DHT22;30162;53.642;10.640;2023-04-01T12:00:25;9.80;95.60
44461;DHT22;30162;53.642;10.640;2023-04-01T12:06:05;10.00;95.30
44461;DHT22;30162;53.642;10.640;2023-04-01T12:09:01;10.00;95.50
44461;DHT22;30162;53.642;10.640;2023-04-01T12:14:14;10.20;95.50
44461;DHT22;30162;53.642;10.640;2023-04-01T12:19:28;10.20;94.80
44461;DHT22;30162;53.642;10.640;2023-04-01T12:27:24;10.50;94.90
44461;DHT22;30162;53.642;10.640;2023-04-01T12:30:13;10.20;94.70
44461;DHT22;30162;53.642;10.640;2023-04-01T12:32:49;10.40;94.80
44461;DHT22;30162;53.642;10.640;2023-04-01T12:35:22;10.20;94.80
44461;DHT22;30162;53.642;10.640;2023-04-01T12:38:10;9.80;94.70
44461;DHT22;30162;53.642;10.640;2023-04-01T12:40:48;10.00;95.00
44461;DHT22;30162;53.642;10.640;2023-04-01T12:49:10;10.10;95.00
44461;DHT22;30162;53.642;10.640;2023-04-01T12:51:53;10.20;94.90
44461;DHT22;30162;53.642;10.640;2023-04-01T12:57:07;9.40;95.30
44461;DHT22;30162;53.642;10.640;2023-04-01T13:02:35;9.50;95.50
44461;DHT22;30162;53.642;10.640;2023-04-01T13:11:20;10.00;95.10
44461;DHT22;30162;53.642;10.640;2023-04-01T13:14:08;9.40;95.10
44461;DHT22;30162;53.642;10.640;2023-04-01T13:17:07;9.80;95.10
44461;DHT22;30162;53.642;10.640;2023-04-01T13:19:56;9.80;95.00
44461;DHT22;30162;53.642;10.640;2023-04-01T13:22:25;9.70;95.00
44461;DHT22;30162;53.642;10.640;2023-04-01T13:25:08;9.80;94.90
44461;DHT22;30162;53.642;10.640;2023-04-01T13:27:43;9.70;94.80
44461;DHT22;30162;53.642;10.640;2023-04-01T13:30:30;9.60;95.00
44461;DHT22;30162;53.642;10.640;2023-04-01T13:33:19;10.00;94.90
44461;DHT22;30162;53.642;10.640;2023-04-01T13:35:48;9.60;94.60
44461;DHT22;30162;53.642;10.640;2023-04-01T13:38:48;9.10;95.00
44461;DHT22;30162;53.642;10.640;2023-04-01T13:44:49;9.60;95.10
44461;DHT22;30162;53.642;10.640;2023-04-01T14:10:19;9.00;95.10
44461;DHT22;30162;53.642;10.640;2023-04-01T14:15:41;9.30;95.00
44461;DHT22;30162;53.642;10.640;2023-04-01T14:30:16;9.10;95.20
44461;DHT22;30162;53.642;10.640;2023-04-01T14:38:24;9.10;95.20
44461;DHT22;30162;53.642;10.640;2023-04-01T14:43:54;9.60;94.60
44461;DHT22;30162;53.642;10.640;2023-04-01T14:51:56;9.60;94.50
44461;DHT22;30162;53.642;10.640;2023-04-01T14:54:37;9.50;94.10
44461;DHT22;30162;53.642;10.640;2023-04-01T14:57:10;9.10;94.30
44461;DHT22;30162;53.642;10.640;2023-04-01T14:59:47;9.10;94.70
44461;DHT22;30162;53.642;10.640;2023-04-01T15:02:27;9.20;94.60
44461;DHT22;30162;53.642;10.640;2023-04-01T15:07:52;8.80;94.80
44461;DHT22;30162;53.642;10.640;2023-04-01T15:10:28;8.70;94.60
44461;DHT22;30162;53.642;10.640;2023-04-01T15:18:46;9.00;94.70
44461;DHT22;30162;53.642;10.640;2023-04-01T15:24:20;9.10;93.80
44461;DHT22;30162;53.642;10.640;2023-04-01T15:35:18;8.60;94.40
44461;DHT22;30162;53.642;10.640;2023-04-01T15:40:24;8.60;94.70
44461;DHT22;30162;53.642;10.640;2023-04-01T15:45:39;8.90;94.00
44461;DHT22;30162;53.642;10.640;2023-04-01T15:51:02;8.70;94.30
44461;DHT22;30162;53.642;10.640;2023-04-01T15:56:25;8.60;94.60
44461;DHT22;30162;53.642;10.640;2023-04-01T16:09:56;9.00;93.70
44461;DHT22;30162;53.642;10.640;2023-04-01T16:12:46;8.90;93.80
44461;DHT22;30162;53.642;10.640;2023-04-01T16:15:47;8.90;93.80
44461;DHT22;30162;53.642;10.640;2023-04-01T16:21:09;8.70;94.00
44461;DHT22;30162;53.642;10.640;2023-04-01T16:23:40;8.80;94.00
44461;DHT22;30162;53.642;10.640;2023-04-01T16:26:29;9.00;93.60
44461;DHT22;30162;53.642;10.640;2023-04-01T16:31:49;8.70;93.90
44461;DHT22;30162;53.642;10.640;2023-04-01T16:34:32;8.40;93.50
44461;DHT22;30162;53.642;10.640;2023-04-01T16:37:08;8.60;93.50
44461;DHT22;30162;53.642;10.640;2023-04-01T16:40:11;8.40;93.50
44461;DHT22;30162;53.642;10.640;2023-04-01T16:42:55;8.20;93.60
44461;DHT22;30162;53.642;10.640;2023-04-01T16:49:15;8.30;93.80
44461;DHT22;30162;53.642;10.640;2023-04-01T16:51:15;8.20;93.50
44461;DHT22;30162;53.642;10.640;2023-04-01T16:53:47;8.30;93.50
44461;DHT22;30162;53.642;10.640;2023-04-01T16:56:20;8.30;93.30
44461;DHT22;30162;53.642;10.640;2023-04-01T16:59:26;7.90;93.50
44461;DHT22;30162;53.642;10.640;2023-04-01T17:02:14;8.00;93.70
44461;DHT22;30162;53.642;10.640;2023-04-01T17:04:48;8.00;93.70
44461;DHT22;30162;53.642;10.640;2023-04-01T17:12:39;7.70;93.40
44461;DHT22;30162;53.642;10.640;2023-04-01T17:23:35;8.10;93.20
44461;DHT22;30162;53.642;10.640;2023-04-01T17:38:13;8.20;93.20
44461;DHT22;30162;53.642;10.640;2023-04-01T17:40:50;8.30;93.00
44461;DHT22;30162;53.642;10.640;2023-04-01T17:46:05;7.90;92.70
44461;DHT22;30162;53.642;10.640;2023-04-01T17:48:38;7.90;93.10
44461;DHT22;30162;53.642;10.640;2023-04-01T17:51:33;8.00;92.90
44461;DHT22;30162;53.642;10.640;2023-04-01T17:54:41;8.20;92.70
44461;DHT22;30162;53.642;10.640;2023-04-01T18:03:00;7.70;92.90
44461;DHT22;30162;53.642;10.640;2023-04-01T18:08:39;7.50;92.60
44461;DHT22;30162;53.642;10.640;2023-04-01T18:22:33;7.00;92.70
44461;DHT22;30162;53.642;10.640;2023-04-01T18:25:13;7.10;92.70
44461;DHT22;30162;53.642;10.640;2023-04-01T18:27:45;7.30;92.50
44461;DHT22;30162;53.642;10.640;2023-04-01T18:38:11;7.70;91.50
44461;DHT22;30162;53.642;10.640;2023-04-01T18:40:48;7.60;91.30
44461;DHT22;30162;53.642;10.640;2023-04-01T18:49:05;7.30;91.10
44461;DHT22;30162;53.642;10.640;2023-04-01T18:51:49;7.30;90.80
44461;DHT22;30162;53.642;10.640;2023-04-01T18:54:27;7.30;90.80
44461;DHT22;30162;53.642;10.640;2023-04-01T18:57:16;7.20;90.50
44461;DHT22;30162;53.642;10.640;2023-04-01T19:02:33;6.80;90.50
44461;DHT22;30162;53.642;10.640;2023-04-01T19:05:19;6.90;90.70
44461;DHT22;30162;53.642;10.640;2023-04-01T19:20:30;6.90;89.40
44461;DHT22;30162;53.642;10.640;2023-04-01T19:26:11;6.80;90.00
44461;DHT22;30162;53.642;10.640;2023-04-01T19:37:20;7.20;89.20
44461;DHT22;30162;53.642;10.640;2023-04-01T19:42:30;6.60;89.50
44461;DHT22;30162;53.642;10.640;2023-04-01T19:45:19;6.40;89.80
44461;DHT22;30162;53.642;10.640;2023-04-01T19:50:49;6.70;89.10
44461;DHT22;30162;53.642;10.640;2023-04-01T19:53:36;6.40;88.80
44461;DHT22;30162;53.642;10.640;2023-04-01T19:56:16;6.60;89.40
44461;DHT22;30162;53.642;10.640;2023-04-01T19:58:56;6.50;90.10
44461;DHT22;30162;53.642;10.640;2023-04-01T20:01:53;6.60;89.50
44461;DHT22;30162;53.642;10.640;2023-04-01T20:04:30;6.80;89.30
44461;DHT22;30162;53.642;10.640;2023-04-01T20:07:27;6.80;89.00
44461;DHT22;30162;53.642;10.640;2023-04-01T20:10:24;6.90;89.10
44461;DHT22;30162;53.642;10.640;2023-04-01T20:15:39;7.00;89.10
44461;DHT22;30162;53.642;10.640;2023-04-01T20:18:33;7.00;88.80
44461;DHT22;30162;53.642;10.640;2023-04-01T20:21:06;6.50;89.50
44461;DHT22;30162;53.642;10.640;2023-04-01T20:23:50;6.60;89.40
44461;DHT22;30162;53.642;10.640;2023-04-01T20:26:24;6.50;89.90
44461;DHT22;30162;53.642;10.640;2023-04-01T20:31:41;6.70;89.80
44461;DHT22;30162;53.642;10.640;2023-04-01T20:34:20;6.70;89.30
44461;DHT22;30162;53.642;10.640;2023-04-01T20:40:00;6.80;88.80
44461;DHT22;30162;53.642;10.640;2023-04-01T20:47:58;6.60;89.70
44461;DHT22;30162;53.642;10.640;2023-04-01T20:50:37;6.80;89.50
44461;DHT22;30162;53.642;10.640;2023-04-01T20:53:25;6.90;89.00
44461;DHT22;30162;53.642;10.640;2023-04-01T21:04:21;6.50;89.10
44461;DHT22;30162;53.642;10.640;2023-04-01T21:06:49;6.50;89.30
44461;DHT22;30162;53.642;10.640;2023-04-01T21:12:32;6.60;88.90
44461;DHT22;30162;53.642;10.640;2023-04-01T21:15:25;6.50;88.50
44461;DHT22;30162;53.642;10.640;2023-04-01T21:34:40;6.60;88.80
44461;DHT22;30162;53.642;10.640;2023-04-01T21:37:53;6.40;88.30
44461;DHT22;30162;53.642;10.640;2023-04-01T21:40:39;6.30;88.40
44461;DHT22;30162;53.642;10.640;2023-04-01T21:52:52;6.20;89.00
44461;DHT22;30162;53.642;10.640;2023-04-01T21:55:30;6.10;89.30
44461;DHT22;30162;53.642;10.640;2023-04-01T22:06:50;6.10;88.50
44461;DHT22;30162;53.642;10.640;2023-04-01T22:12:40;6.30;88.70
44461;DHT22;30162;53.642;10.640;2023-04-01T22:17:54;6.10;88.80
44461;DHT22;30162;53.642;10.640;2023-04-01T22:20:33;6.10;88.50
44461;DHT22;30162;53.642;10.640;2023-04-01T22:28:46;6.00;88.80
44461;DHT22;30162;53.642;10.640;2023-04-01T22:31:22;6.00;89.30
44461;DHT22;30162;53.642;10.640;2023-04-01T22:34:03;6.00;89.00
44461;DHT22;30162;53.642;10.640;2023-04-01T22:36:50;6.10;88.50
44461;DHT22;30162;53.642;10.640;2023-04-01T22:39:41;6.10;88.50
44461;DHT22;30162;53.642;10.640;2023-04-01T22:48:20;6.10;88.90
44461;DHT22;30162;53.642;10.640;2023-04-01T22:50:50;5.70;88.90
44461;DHT22;30162;53.642;10.640;2023-04-01T22:55:53;5.60;89.90
44461;DHT22;30162;53.642;10.640;2023-04-01T22:58:30;5.60;89.50
44461;DHT22;30162;53.642;10.640;2023-04-01T23:01:01;5.60;89.50
44461;DHT22;30162;53.642;10.640;2023-04-01T23:03:33;5.60;90.00
44461;DHT22;30162;53.642;10.640;2023-04-01T23:06:02;5.60;89.10
44461;DHT22;30162;53.642;10.640;2023-04-01T23:11:04;5.40;90.10
44461;DHT22;30162;53.642;10.640;2023-04-01T23:13:38;5.40;89.70
44461;DHT22;30162;53.642;10.640;2023-04-01T23:16:05;5.30;89.70
44461;DHT22;30162;53.642;10.640;2023-04-01T23:21:35;5.70;89.70
44461;DHT22;30162;53.642;10.640;2023-04-01T23:24:12;5.80;88.90
44461;DHT22;30162;53.642;10.640;2023-04-01T23:27:03;5.60;88.80
44461;DHT22;30162;53.642;10.640;2023-04-01T23:29:35;5.40;88.80
44461;DHT22;30162;53.642;10.640;2023-04-01T23:32:03;5.60;89.20
44461;DHT22;30162;53.642;10.640;2023-04-01T23:34:34;5.60;88.80
44461;DHT22;30162;53.642;10.640;2023-04-01T23:37:13;5.70;88.40
44461;DHT22;30162;53.642;10.640;2023-04-01T23:39:46;5.60;88.90
44461;DHT22;30162;53.642;10.640;2023-04-01T23:42:26;5.30;88.70
44461;DHT22;30162;53.642;10.640;2023-04-01T23:45:02;5.40;89.10
44461;DHT22;30162;53.642;10.640;2023-04-01T23:47:33;5.40;88.60
44461;DHT22;30162;53.642;10.640;2023-04-01T23:52:35;5.40;88.80
44461;DHT22;30162;53.642;10.640;2023-04-01T23:55:12;5.50;88.40
44461;DHT22;30162;53.642;10.640;2023-04-01T23:57:38;5.60;88.30
